Time;durP1;ratioP1;P1;durP2;ratioP2;P2;SDS_P1;SDS_P2;PMS_P1;PMS_P2;Temp;Humidity;BMP_temperature;BMP_pressure;BME280_temperature;BME280_humidity;BME280_pressure;Samples;Min_cycle;Max_cycle;Signal;HPM_P1;HPM_P2
2021/12/15 00:02:13;;;;;;;34.53;18.83;;;;;;;;;;5016587;28;20496;-88
2021/12/15 00:04:42;;;;;;;37.80;18.87;;;;;;;;;;5014677;28;20879;-92
2021/12/15 00:07:09;;;;;;;37.63;20.17;;;;;;;;;;5019347;28;20494;-89
2021/12/15 00:09:40;;;;;;;31.37;17.40;;;;;;;;;;5019719;28;20445;-89
2021/12/15 00:12:16;;;;;;;31.07;19.23;;;5.70;99.90;;;;;;5017717;28;20463;-89
2021/12/15 00:14:44;;;;;;;42.97;19.80;;;5.80;99.90;;;;;;5017287;28;20457;-93
2021/12/15 00:17:11;;;;;;;37.17;19.47;;;;;;;;;;5021047;28;20925;-91
2021/12/15 00:19:42;;;;;;;29.87;18.23;;;5.80;99.90;;;;;;5020498;28;20441;-91
2021/12/15 00:22:11;;;;;;;31.37;18.37;;;;;;;;;;5021203;28;20492;-91
2021/12/15 00:24:38;;;;;;;29.60;17.30;;;;;;;;;;5022666;28;20548;-95
2021/12/15 00:27:07;;;;;;;34.13;18.03;;;5.90;99.90;;;;;;5020316;28;20456;-90
2021/12/15 00:29:37;;;;;;;31.30;18.50;;;5.80;99.90;;;;;;5019015;28;20445;-93
2021/12/15 00:32:07;;;;;;;28.47;18.50;;;5.70;99.90;;;;;;5022306;28;20461;-91
2021/12/15 00:34:40;;;;;;;33.17;17.87;;;5.80;99.90;;;;;;5019261;28;20480;-90
2021/12/15 00:39:50;;;;;;;34.30;16.50;;;5.00;99.90;;;;;;5022739;28;20449;-95
2021/12/15 00:42:19;;;;;;;32.50;18.27;;;5.60;99.90;;;;;;5022982;28;20503;-92
2021/12/15 00:44:47;;;;;;;29.90;18.60;;;5.60;99.90;;;;;;5022999;28;20451;-89
2021/12/15 00:47:15;;;;;;;37.10;20.10;;;;;;;;;;4988619;28;20447;-92
2021/12/15 00:49:46;;;;;;;31.53;19.23;;;5.70;99.90;;;;;;5024161;28;20460;-92
2021/12/15 00:52:14;;;;;;;31.70;19.67;;;;;;;;;;5021687;28;20543;-89
2021/12/15 00:54:41;;;;;;;32.30;18.00;;;;;;;;;;5026130;28;20460;-90
2021/12/15 00:57:12;;;;;;;42.30;19.43;;;5.70;99.90;;;;;;4987226;28;20490;-92
2021/12/15 00:59:41;;;;;;;33.37;18.60;;;;;;;;;;4986863;28;20459;-90
2021/12/15 01:02:10;;;;;;;32.03;20.10;;;5.60;99.90;;;;;;4987093;28;20502;-92
2021/12/15 01:04:39;;;;;;;29.03;16.90;;;5.80;99.90;;;;;;4983584;28;20474;-91
2021/12/15 01:07:12;;;;;;;29.90;16.20;;;5.70;99.90;;;;;;4983169;28;20460;-95
2021/12/15 01:09:47;;;;;;;25.87;15.50;;;5.70;99.90;;;;;;4989240;28;20529;-93
2021/12/15 01:12:26;;;;;;;24.03;14.17;;;5.70;99.90;;;;;;4994688;28;20461;-90
2021/12/15 01:20:36;;;;;;;26.83;15.50;;;5.70;99.90;;;;;;4991500;28;20616;-89
2021/12/15 01:23:07;;;;;;;25.20;15.07;;;6.20;99.90;;;;;;5013535;28;20453;-90
2021/12/15 01:25:36;;;;;;;29.10;15.90;;;5.70;99.90;;;;;;5015729;28;20456;-90
2021/12/15 01:28:04;;;;;;;29.60;17.70;;;5.80;99.90;;;;;;5018199;28;20453;-89
2021/12/15 01:30:35;;;;;;;26.27;16.53;;;5.70;99.90;;;;;;5020145;28;20452;-92
2021/12/15 01:33:04;;;;;;;24.93;15.50;;;5.50;99.90;;;;;;5022338;28;20453;-89
2021/12/15 01:35:32;;;;;;;28.40;18.17;;;5.70;99.90;;;;;;5022489;28;20955;-89
2021/12/15 01:37:59;;;;;;;28.33;16.77;;;;;;;;;;5021137;28;20453;-90
2021/12/15 01:40:34;;;;;;;26.80;16.53;;;5.80;99.90;;;;;;5021524;28;20460;-89
2021/12/15 01:43:02;;;;;;;27.43;16.53;;;5.60;99.90;;;;;;5020974;28;20488;-88
2021/12/15 01:48:16;;;;;;;30.40;16.47;;;5.70;99.90;;;;;;5021883;28;20787;-88
2021/12/15 01:50:44;;;;;;;29.27;17.47;;;5.20;99.90;;;;;;5015678;28;20441;-89
2021/12/15 01:53:12;;;;;;;24.53;15.53;;;5.70;99.90;;;;;;5021419;28;20448;-90
2021/12/15 01:55:39;;;;;;;24.80;15.70;;;;;;;;;;5021705;28;20445;-89
2021/12/15 01:58:06;;;;;;;27.00;15.50;;;;;;;;;;5022299;28;20452;-89
2021/12/15 02:00:38;;;;;;;25.23;14.80;;;5.80;99.90;;;;;;5021796;28;20784;-89
2021/12/15 02:03:05;;;;;;;25.50;16.50;;;5.80;99.90;;;;;;5021749;28;20511;-88
2021/12/15 02:05:35;;;;;;;27.80;16.17;;;5.80;99.90;;;;;;5021291;28;20456;-89
2021/12/15 02:08:02;;;;;;;19.93;13.07;;;;;;;;;;5020932;28;20456;-91
2021/12/15 02:10:32;;;;;;;21.83;13.30;;;5.70;99.90;;;;;;5017646;28;20449;-87
2021/12/15 02:13:01;;;;;;;16.10;10.50;;;5.70;99.90;;;;;;5011449;28;20905;-88
2021/12/15 02:15:32;;;;;;;15.50;10.50;;;5.80;99.90;;;;;;5017629;28;20452;-88
2021/12/15 02:18:00;;;;;;;19.23;11.03;;;5.70;99.90;;;;;;5017287;28;20456;-87
2021/12/15 02:20:33;;;;;;;17.60;11.70;;;5.60;99.90;;;;;;5016917;28;20455;-89
2021/12/15 02:23:01;;;;;;;21.97;14.10;;;;;;;;;;5015842;28;20547;-89
2021/12/15 02:25:28;;;;;;;21.27;14.03;;;5.70;99.90;;;;;;5016778;28;20464;-87
2021/12/15 02:27:55;;;;;;;19.30;13.10;;;;;;;;;;5018357;28;20455;-89
2021/12/15 02:30:42;;;;;;;16.30;10.30;;;5.70;99.90;;;;;;5021430;28;20449;-88
2021/12/15 02:33:35;;;;;;;14.03;9.50;;;5.60;99.90;;;;;;5020753;28;20536;-90
2021/12/15 02:38:46;;;;;;;19.10;12.17;;;5.60;99.90;;;;;;5020392;28;20436;-89
2021/12/15 02:41:20;;;;;;;17.73;11.60;;;5.60;99.90;;;;;;5020137;28;20456;-89
2021/12/15 02:43:47;;;;;;;20.10;11.57;;;5.60;99.90;;;;;;5017734;28;20493;-89
2021/12/15 02:46:14;;;;;;;19.30;12.57;;;5.50;99.90;;;;;;5014118;28;20508;-88
2021/12/15 02:48:41;;;;;;;19.67;12.60;;;5.80;99.90;;;;;;5017166;28;20468;-89
2021/12/15 02:51:10;;;;;;;14.63;10.07;;;5.70;99.90;;;;;;5015841;28;20824;-89
2021/12/15 02:53:37;;;;;;;18.37;11.97;;;;;;;;;;5020198;28;20447;-90
2021/12/15 02:56:04;;;;;;;14.40;9.30;;;5.00;99.90;;;;;;5019842;28;20449;-89
2021/12/15 02:58:35;;;;;;;10.60;7.63;;;;;;;;;;5019993;28;20437;-89
2021/12/15 03:01:10;;;;;;;13.87;8.50;;;5.60;99.90;;;;;;5016764;28;20460;-89
2021/12/15 03:04:10;;;;;;;12.57;7.97;;;;;;;;;;5020280;28;20470;-89
2021/12/15 03:06:47;;;;;;;11.67;7.20;;;5.80;99.90;;;;;;5018827;28;20453;-90
2021/12/15 03:15:16;;;;;;;9.50;7.60;;;5.50;99.90;;;;;;5016768;28;20878;-89
2021/12/15 03:17:33;;;;;;;13.17;9.17;;;5.90;99.90;;;;;;5018805;28;20444;-89
2021/12/15 03:20:00;;;;;;;11.60;8.10;;;;;;;;;;5019442;28;20451;-89
2021/12/15 03:22:28;;;;;;;11.27;7.30;;;5.70;99.90;;;;;;5018930;28;20500;-88
2021/12/15 03:24:56;;;;;;;9.10;7.27;;;;;;;;;;5017612;28;20441;-88
2021/12/15 03:33:14;;;;;;;11.80;8.27;;;;;;;;;;5016145;28;20445;-90
2021/12/15 03:36:03;;;;;;;12.63;8.03;;;;;;;;;;4962730;29;20483;-90
2021/12/15 03:38:33;;;;;;;12.40;7.53;;;5.60;99.90;;;;;;5008067;28;20538;-89
2021/12/15 03:41:00;;;;;;;8.10;7.20;;;;;;;;;;5024252;28;20476;-89
2021/12/15 03:43:27;;;;;;;9.97;7.20;;;5.80;99.90;;;;;;5024233;28;20496;-89
2021/12/15 03:45:58;;;;;;;15.63;10.40;;;5.80;99.90;;;;;;5025721;28;20457;-90
2021/12/15 03:48:30;;;;;;;18.23;10.87;;;5.70;99.90;;;;;;5029668;28;20449;-91
2021/12/15 03:50:57;;;;;;;14.97;10.20;;;5.60;99.90;;;;;;5036923;28;20437;-90
2021/12/15 03:53:25;;;;;;;18.70;11.63;;;5.70;99.90;;;;;;5030749;28;20457;-91
2021/12/15 03:55:54;;;;;;;16.70;11.40;;;5.70;99.90;;;;;;5021569;28;20441;-89
2021/12/15 03:58:23;;;;;;;15.10;10.10;;;5.50;99.90;;;;;;5016108;28;20946;-89
2021/12/15 04:00:54;;;;;;;17.20;11.70;;;5.70;99.90;;;;;;5019121;28;20461;-89
2021/12/15 04:03:23;;;;;;;21.27;12.70;;;5.70;99.90;;;;;;5019919;28;20504;-88
2021/12/15 04:05:50;;;;;;;16.57;10.73;;;5.60;99.90;;;;;;5020656;28;20460;-88
2021/12/15 04:08:18;;;;;;;16.30;11.60;;;;;;;;;;5014381;28;20457;-90
2021/12/15 04:10:45;;;;;;;18.83;12.17;;;;;;;;;;5018795;28;20453;-89
2021/12/15 04:13:15;;;;;;;19.70;12.20;;;6.00;99.90;;;;;;5013662;28;20456;-89
2021/12/15 04:15:53;;;;;;;17.97;11.73;;;5.90;99.90;;;;;;5018870;28;20449;-89
2021/12/15 04:18:20;;;;;;;12.43;8.80;;;;;;;;;;5018385;28;20448;-89
2021/12/15 04:20:47;;;;;;;14.93;9.87;;;;;;;;;;5018633;28;20448;-89
2021/12/15 04:23:19;;;;;;;12.70;7.43;;;5.70;99.90;;;;;;5017969;28;20828;-89
2021/12/15 04:25:46;;;;;;;13.77;9.50;;;;;;;;;;5015711;28;20453;-90
2021/12/15 04:28:18;;;;;;;12.13;8.60;;;5.80;99.90;;;;;;5019563;28;20453;-89
2021/12/15 04:30:48;;;;;;;12.57;7.97;;;5.80;99.90;;;;;;5013742;28;20461;-89
2021/12/15 04:33:23;;;;;;;11.23;6.90;;;5.50;99.90;;;;;;5020120;28;20468;-90
2021/12/15 04:35:52;;;;;;;6.17;4.70;;;5.90;99.90;;;;;;5024448;28;20516;-88
2021/12/15 04:38:19;;;;;;;10.20;5.73;;;5.30;99.90;;;;;;5029725;28;20457;-89
2021/12/15 04:40:46;;;;;;;8.27;5.30;;;6.00;99.90;;;;;;5030031;28;20453;-90
2021/12/15 04:43:15;;;;;;;7.23;5.53;;;5.60;99.90;;;;;;5026420;28;20496;-89
2021/12/15 04:45:42;;;;;;;6.67;4.70;;;;;;;;;;5028696;28;20437;-89
2021/12/15 04:48:10;;;;;;;6.83;5.30;;;5.50;99.90;;;;;;5027796;28;21027;-90
2021/12/15 04:50:39;;;;;;;7.13;4.70;;;5.40;99.90;;;;;;5021610;28;20445;-89
2021/12/15 04:53:07;;;;;;;6.83;4.97;;;5.30;99.90;;;;;;5028846;28;20453;-90
2021/12/15 04:55:36;;;;;;;5.33;4.83;;;5.40;99.90;;;;;;5028432;28;20437;-89
2021/12/15 04:58:05;;;;;;;8.17;5.13;;;5.30;99.90;;;;;;5027962;28;20445;-89
2021/12/15 05:00:45;;;;;;;5.10;4.37;;;5.40;99.90;;;;;;5027033;28;20452;-89
2021/12/15 05:03:12;;;;;;;8.90;5.10;;;;;;;;;;5024410;28;20496;-90
2021/12/15 05:05:39;;;;;;;6.60;5.10;;;;;;;;;;5031964;28;20510;-89
2021/12/15 05:08:07;;;;;;;5.40;4.37;;;5.80;99.90;;;;;;5015930;28;20820;-88
2021/12/15 05:10:35;;;;;;;4.80;4.13;;;5.60;99.90;;;;;;5012942;28;20453;-89
2021/12/15 05:13:03;;;;;;;5.10;4.30;;;;;;;;;;5016913;28;20452;-89
2021/12/15 05:15:30;;;;;;;5.20;4.30;;;;;;;;;;5016847;28;20457;-88
2021/12/15 05:17:59;;;;;;;5.20;4.70;;;5.50;99.90;;;;;;5016781;28;20457;-89
2021/12/15 05:20:26;;;;;;;5.93;4.90;;;;;;;;;;5016489;28;20456;-89
2021/12/15 05:22:54;;;;;;;4.90;4.00;;;5.50;99.90;;;;;;5020300;28;20521;-89
2021/12/15 05:25:22;;;;;;;4.70;4.17;;;;;;;;;;5017501;28;20448;-90
2021/12/15 05:27:49;;;;;;;6.87;4.50;;;5.50;99.90;;;;;;5016742;28;20455;-90
2021/12/15 05:30:18;;;;;;;4.13;3.67;;;5.50;99.90;;;;;;5016357;28;20456;-89
2021/12/15 05:32:46;;;;;;;6.53;4.50;;;5.50;99.90;;;;;;5016592;28;20456;-89
2021/12/15 05:35:20;;;;;;;9.30;6.37;;;5.70;99.90;;;;;;5017311;28;20453;-88
2021/12/15 05:37:48;;;;;;;11.03;7.83;;;5.80;99.90;;;;;;5012780;28;20506;-90
2021/12/15 05:40:15;;;;;;;11.67;8.00;;;;;;;;;;5016711;28;20467;-90
2021/12/15 05:42:42;;;;;;;13.00;9.23;;;;;;;;;;5016425;28;20489;-89
2021/12/15 05:45:10;;;;;;;6.93;5.63;;;5.50;99.90;;;;;;5013760;28;20441;-89
2021/12/15 05:47:37;;;;;;;7.30;6.07;;;5.70;99.90;;;;;;5017382;28;20940;-89
2021/12/15 05:50:08;;;;;;;7.53;5.60;;;5.40;99.90;;;;;;5011904;28;20945;-88
2021/12/15 05:52:37;;;;;;;6.00;4.97;;;5.60;99.90;;;;;;5014526;28;20937;-91
2021/12/15 05:55:07;;;;;;;8.97;6.47;;;5.70;99.90;;;;;;5029121;28;20429;-89
2021/12/15 05:57:34;;;;;;;5.50;4.67;;;;;;;;;;5036457;23;20520;-89
2021/12/15 06:00:02;;;;;;;8.33;5.60;;;;;;;;;;5029073;28;20440;-89
2021/12/15 06:02:29;;;;;;;8.00;6.00;;;;;;;;;;5028547;28;20484;-90
2021/12/15 06:04:56;;;;;;;9.33;8.13;;;;;;;;;;5027691;28;20818;-89
2021/12/15 06:07:23;;;;;;;11.27;7.80;;;5.80;99.90;;;;;;5023124;28;20452;-89
2021/12/15 06:09:51;;;;;;;13.57;7.70;;;6.00;99.90;;;;;;5024563;28;20449;-89
2021/12/15 06:12:18;;;;;;;11.40;7.80;;;;;;;;;;5029808;28;20452;-89
2021/12/15 06:14:45;;;;;;;10.60;8.57;;;;;;;;;;5027776;28;20441;-88
2021/12/15 06:17:13;;;;;;;13.73;8.40;;;5.60;99.90;;;;;;5022147;28;20495;-90
2021/12/15 06:19:40;;;;;;;7.43;5.73;;;5.60;99.90;;;;;;5020417;28;20445;-89
2021/12/15 06:22:09;;;;;;;8.07;5.53;;;5.50;99.90;;;;;;5020603;28;21008;-89
2021/12/15 06:24:38;;;;;;;6.50;5.63;;;5.50;99.90;;;;;;5025683;28;20484;-89
2021/12/15 06:27:16;;;;;;;7.43;6.17;;;5.70;99.90;;;;;;5025385;28;20508;-89
2021/12/15 06:29:43;;;;;;;7.87;4.47;;;;;;;;;;5021811;28;20932;-90
2021/12/15 06:32:10;;;;;;;6.53;4.70;;;;;;;;;;5028760;28;20460;-90
2021/12/15 06:34:37;;;;;;;7.43;5.77;;;;;;;;;;5024554;28;20456;-90
2021/12/15 06:37:05;;;;;;;7.20;6.13;;;5.10;99.90;;;;;;5025648;28;20457;-89
2021/12/15 06:39:32;;;;;;;9.00;6.70;;;;;;;;;;5025878;28;20939;-89
2021/12/15 06:42:15;;;;;;;6.80;5.73;;;5.50;99.90;;;;;;5025993;28;20460;-89
2021/12/15 06:45:03;;;;;;;7.00;6.30;;;;;;;;;;5026742;28;20457;-89
2021/12/15 06:58:31;;;;;;;6.97;5.50;;;;;;;;;;5027404;28;21171;-92
2021/12/15 07:01:01;;;;;;;7.10;5.73;;;5.50;99.90;;;;;;5024155;28;20479;-91
2021/12/15 07:03:29;;;;;;;8.50;6.90;;;;;;;;;;5017141;28;20500;-90
2021/12/15 07:05:56;;;;;;;10.20;8.33;;;5.50;99.90;;;;;;5014818;28;20452;-89
2021/12/15 07:08:24;;;;;;;9.93;8.27;;;;;;;;;;5015934;28;20448;-91
2021/12/15 07:10:53;;;;;;;10.50;8.80;;;5.50;99.90;;;;;;5015821;28;20533;-90
2021/12/15 07:13:21;;;;;;;10.23;8.53;;;5.50;99.90;;;;;;5016087;28;20453;-88
2021/12/15 07:15:58;;;;;;;10.43;8.13;;;5.50;99.90;;;;;;5018145;28;20464;-89
2021/12/15 07:18:37;;;;;;;13.40;10.50;;;5.50;99.90;;;;;;5018348;28;20465;-90
2021/12/15 07:21:08;;;;;;;14.00;9.70;;;5.60;99.90;;;;;;5017398;28;20457;-89
2021/12/15 07:23:36;;;;;;;10.97;8.50;;;;;;;;;;5020376;28;20484;-88
2021/12/15 07:26:03;;;;;;;11.20;8.70;;;5.50;99.90;;;;;;5014460;28;20836;-88
2021/12/15 07:28:31;;;;;;;12.60;9.57;;;5.50;99.90;;;;;;5012891;28;20495;-89
2021/12/15 07:30:58;;;;;;;14.27;10.37;;;;;;;;;;5015957;28;20444;-91
2021/12/15 07:33:27;;;;;;;18.17;12.17;;;5.50;99.90;;;;;;5012366;28;20840;-91
2021/12/15 07:35:54;;;;;;;17.90;11.37;;;;;;;;;;5014833;28;20453;-92
2021/12/15 07:38:21;;;;;;;25.93;13.30;;;;;;;;;;5015590;28;20453;-91
2021/12/15 07:40:49;;;;;;;18.90;12.00;;;;;;;;;;5016087;28;20445;-91
2021/12/15 07:43:24;;;;;;;18.63;12.60;;;5.60;99.90;;;;;;5015587;28;20488;-92
2021/12/15 07:45:54;;;;;;;17.00;11.70;;;5.50;99.90;;;;;;5015934;28;20451;-90
2021/12/15 07:48:23;;;;;;;17.70;10.67;;;5.50;99.90;;;;;;5015522;28;20449;-90
2021/12/15 07:50:54;;;;;;;15.63;11.63;;;5.60;99.90;;;;;;5011667;28;20507;-88
2021/12/15 07:53:22;;;;;;;17.93;12.60;;;5.50;99.90;;;;;;5015171;28;20572;-92
2021/12/15 07:55:50;;;;;;;19.20;12.70;;;5.50;99.90;;;;;;5011566;28;20464;-94
2021/12/15 07:58:19;;;;;;;16.83;12.77;;;5.50;99.90;;;;;;5007233;28;20493;-91
2021/12/15 08:00:48;;;;;;;17.53;12.20;;;5.50;99.90;;;;;;4996170;28;20431;-91
2021/12/15 08:03:16;;;;;;;22.60;13.50;;;;;;;;;;4998439;28;20848;-92
2021/12/15 08:05:44;;;;;;;23.83;13.93;;;5.50;99.90;;;;;;4993995;28;20456;-88
2021/12/15 08:08:13;;;;;;;21.37;13.67;;;5.70;99.90;;;;;;5003312;28;20444;-90
2021/12/15 08:10:41;;;;;;;22.23;13.67;;;5.50;99.90;;;;;;4960040;28;20450;-92
2021/12/15 08:13:08;;;;;;;19.07;13.70;;;;;;;;;;4996289;28;20492;-90
2021/12/15 08:15:36;;;;;;;23.17;13.43;;;;;;;;;;5003036;28;20458;-94
2021/12/15 08:18:03;;;;;;;22.07;13.50;;;;;;;;;;4998574;28;20453;-91
2021/12/15 08:20:31;;;;;;;23.23;12.33;;;5.40;99.90;;;;;;4999466;28;20458;-92
2021/12/15 08:22:59;;;;;;;20.73;13.50;;;;;;;;;;4995565;28;20473;-92
2021/12/15 08:25:27;;;;;;;23.60;10.53;;;5.50;99.90;;;;;;4997759;28;20461;-88
2021/12/15 08:27:54;;;;;;;28.80;10.47;;;5.50;99.90;;;;;;4997470;28;20449;-91
2021/12/15 08:30:24;;;;;;;16.33;9.30;;;5.40;99.90;;;;;;4999640;28;20960;-90
2021/12/15 08:32:53;;;;;;;15.50;8.70;;;5.50;99.90;;;;;;4998602;28;20449;-91
2021/12/15 08:35:23;;;;;;;18.23;9.20;;;5.50;99.90;;;;;;5011914;28;20497;-92
2021/12/15 08:37:51;;;;;;;10.70;7.40;;;;;;;;;;5010802;28;20468;-89
2021/12/15 08:40:19;;;;;;;10.00;7.60;;;5.40;99.90;;;;;;5019147;28;20444;-89
2021/12/15 08:42:50;;;;;;;19.10;7.50;;;;;;;;;;5013775;28;20453;-89
2021/12/15 08:45:19;;;;;;;11.43;8.00;;;;;;;;;;5013265;28;20472;-90
2021/12/15 08:47:59;;;;;;;10.70;7.20;;;;;;;;;;5017191;28;20451;-94
2021/12/15 08:50:31;;;;;;;9.90;7.33;;;5.50;99.90;;;;;;5000871;28;20484;-90
2021/12/15 08:53:01;;;;;;;11.10;7.30;;;;;;;;;;5005980;28;20445;-89
2021/12/15 08:55:28;;;;;;;9.17;7.17;;;;;;;;;;4996997;28;20485;-88
2021/12/15 08:57:59;;;;;;;9.90;7.60;;;;;;;;;;4997927;28;20485;-90
2021/12/15 09:00:27;;;;;;;10.40;7.27;;;5.40;99.90;;;;;;4996512;28;20533;-88
2021/12/15 09:02:55;;;;;;;10.43;6.73;;;5.40;99.90;;;;;;4999693;28;20956;-90
2021/12/15 09:05:23;;;;;;;10.00;7.37;;;5.40;99.90;;;;;;5011875;28;20453;-90
2021/12/15 09:07:52;;;;;;;10.20;7.10;;;5.60;99.90;;;;;;5007430;28;20441;-92
2021/12/15 09:10:22;;;;;;;9.73;7.13;;;5.50;99.90;;;;;;5015546;28;20420;-90
2021/12/15 09:12:50;;;;;;;10.20;7.00;;;5.40;99.90;;;;;;5026921;28;20463;-88
2021/12/15 09:15:20;;;;;;;9.40;6.87;;;5.40;99.90;;;;;;5019600;28;20453;-86
2021/12/15 09:17:50;;;;;;;8.90;6.47;;;;;;;;;;5020338;28;20463;-91
2021/12/15 09:20:20;;;;;;;13.80;6.40;;;5.40;99.90;;;;;;5019636;28;20449;-90
2021/12/15 09:22:47;;;;;;;8.10;6.70;;;5.80;99.90;;;;;;5018265;28;20449;-90
2021/12/15 09:25:16;;;;;;;8.70;6.57;;;5.50;99.90;;;;;;5018505;28;20499;-90
2021/12/15 09:27:43;;;;;;;11.67;6.97;;;5.60;99.90;;;;;;5020883;28;20846;-91
2021/12/15 09:30:14;;;;;;;8.97;6.47;;;5.20;99.90;;;;;;5021134;28;20476;-91
2021/12/15 09:32:43;;;;;;;7.33;5.10;;;5.60;99.90;;;;;;5023741;28;20433;-89
2021/12/15 09:35:11;;;;;;;5.90;4.43;;;5.60;99.90;;;;;;5022463;28;20461;-93
2021/12/15 09:37:38;;;;;;;9.50;6.23;;;;;;;;;;5021390;28;20948;-89
2021/12/15 09:40:08;;;;;;;9.60;5.20;;;5.80;99.90;;;;;;5021218;28;20449;-91
2021/12/15 09:42:38;;;;;;;6.70;4.90;;;;;;;;;;5019674;28;20453;-90
2021/12/15 09:45:22;;;;;;;6.17;4.40;;;5.70;99.90;;;;;;5015752;28;20493;-92
2021/12/15 09:48:05;;;;;;;6.43;4.40;;;5.60;99.90;;;;;;4996290;28;20454;-92
2021/12/15 09:56:38;;;;;;;8.83;5.70;;;;;;;;;;5015068;28;20876;-90
2021/12/15 10:02:04;;;;;;;8.77;6.23;;;;;;;;;;5015837;28;20433;-91
2021/12/15 10:04:42;;;;;;;6.60;5.10;;;5.40;99.90;;;;;;5017364;28;21018;-91
2021/12/15 10:07:21;;;;;;;5.90;4.77;;;;;;;;;;5012964;28;20487;-89
2021/12/15 10:18:25;;;;;;;6.13;5.53;;;5.50;99.90;;;;;;5016550;28;21002;-91
2021/12/15 10:20:53;;;;;;;9.10;6.10;;;5.50;99.90;;;;;;5011255;28;20832;-90
2021/12/15 10:23:24;;;;;;;6.80;5.90;;;;;;;;;;5011498;28;20453;-91
2021/12/15 10:25:54;;;;;;;6.70;5.37;;;5.40;99.90;;;;;;5011827;28;20818;-91
2021/12/15 10:28:23;;;;;;;7.03;5.80;;;5.30;99.90;;;;;;4990855;28;20476;-94
2021/12/15 10:30:54;;;;;;;6.20;5.13;;;5.20;99.90;;;;;;4994485;28;20497;-89
2021/12/15 10:33:23;;;;;;;10.90;6.77;;;5.20;99.90;;;;;;4996567;28;20450;-90
2021/12/15 10:35:54;;;;;;;9.73;6.73;;;5.30;99.90;;;;;;4998602;28;20469;-92
2021/12/15 10:38:26;;;;;;;10.33;6.93;;;5.10;99.90;;;;;;4997949;28;20446;-93
2021/12/15 10:40:58;;;;;;;7.33;5.70;;;5.30;99.90;;;;;;5010998;28;20453;-90
2021/12/15 10:43:28;;;;;;;10.40;6.23;;;5.40;99.90;;;;;;5011856;28;20462;-89
2021/12/15 10:46:00;;;;;;;9.73;6.60;;;5.40;99.90;;;;;;5014377;28;20453;-90
2021/12/15 10:48:37;;;;;;;7.87;5.90;;;5.30;99.90;;;;;;5011647;28;20444;-90
2021/12/15 10:51:23;;;;;;;11.20;7.20;;;5.10;99.90;;;;;;5012487;28;20449;-92
2021/12/15 10:53:52;;;;;;;8.93;5.67;;;5.30;99.90;;;;;;5011867;28;20437;-92
2021/12/15 10:56:22;;;;;;;7.67;6.33;;;5.50;99.90;;;;;;5015327;28;20485;-91
2021/12/15 10:58:51;;;;;;;7.80;6.03;;;5.40;99.90;;;;;;5014953;28;20452;-92
2021/12/15 11:01:51;;;;;;;7.03;6.00;;;5.00;99.90;;;;;;5013628;28;20428;-94
2021/12/15 11:04:44;;;;;;;9.10;5.73;;;5.50;99.90;;;;;;5016022;28;20485;-93
2021/12/15 11:07:24;;;;;;;8.60;6.53;;;5.30;99.90;;;;;;5014683;28;20455;-91
2021/12/15 11:09:55;;;;;;;9.57;6.17;;;5.30;99.90;;;;;;5009862;28;20508;-90
2021/12/15 11:12:25;;;;;;;7.80;5.53;;;5.30;99.90;;;;;;5005469;28;20790;-94
2021/12/15 11:14:54;;;;;;;8.13;5.90;;;5.50;99.90;;;;;;5007643;28;20823;-92
2021/12/15 11:17:23;;;;;;;10.00;6.80;;;5.40;99.90;;;;;;5007347;28;20461;-92
2021/12/15 11:19:54;;;;;;;8.00;5.93;;;5.30;99.90;;;;;;5011843;28;20925;-93
2021/12/15 11:22:53;;;;;;;9.80;6.10;;;5.00;99.90;;;;;;5012747;28;20461;-93
2021/12/15 11:25:38;;;;;;;9.67;6.93;;;5.40;99.90;;;;;;5015703;28;20476;-93
2021/12/15 11:28:09;;;;;;;8.07;5.50;;;6.50;99.90;;;;;;5015239;28;20471;-91
2021/12/15 11:30:47;;;;;;;9.10;6.10;;;5.20;99.90;;;;;;5013282;28;20818;-91
2021/12/15 11:33:17;;;;;;;9.90;6.60;;;5.20;99.90;;;;;;5006737;28;20451;-89
2021/12/15 11:35:47;;;;;;;13.30;7.10;;;5.20;99.90;;;;;;5008712;28;20449;-90
2021/12/15 11:38:19;;;;;;;10.37;7.10;;;5.20;99.90;;;;;;5011155;28;20440;-91
2021/12/15 11:40:51;;;;;;;8.80;6.53;;;5.30;99.90;;;;;;5018309;28;20444;-90
2021/12/15 11:43:37;;;;;;;7.90;6.30;;;5.40;99.90;;;;;;5014574;28;20944;-93
2021/12/15 11:46:14;;;;;;;9.87;7.23;;;5.30;99.90;;;;;;5011060;28;20809;-91
2021/12/15 11:48:41;;;;;;;9.43;6.50;;;;;;;;;;5010722;28;20496;-90
2021/12/15 11:51:14;;;;;;;9.43;6.83;;;;;;;;;;4995635;28;20450;-92
2021/12/15 11:53:45;;;;;;;10.40;7.00;;;5.50;99.90;;;;;;4996380;28;20450;-92
2021/12/15 11:56:26;;;;;;;20.73;7.57;;;5.20;99.90;;;;;;4993439;28;20941;-93
2021/12/15 11:58:58;;;;;;;11.07;7.27;;;5.40;99.90;;;;;;4990711;28;20820;-90
2021/12/15 12:01:46;;;;;;;13.17;7.47;;;5.30;99.90;;;;;;4993658;28;20495;-92
2021/12/15 12:04:20;;;;;;;9.33;7.10;;;5.50;99.90;;;;;;4996827;28;20479;-90
2021/12/15 12:06:49;;;;;;;10.03;6.47;;;5.30;99.90;;;;;;4995911;28;20484;-89
2021/12/15 12:09:19;;;;;;;11.90;6.80;;;5.10;99.90;;;;;;4990353;28;20465;-90
2021/12/15 12:11:51;;;;;;;9.30;6.83;;;;;;;;;;4992673;28;20466;-90
2021/12/15 12:14:37;;;;;;;9.67;7.73;;;5.20;99.90;;;;;;4990689;28;20465;-89
2021/12/15 12:17:06;;;;;;;10.93;7.40;;;5.40;99.90;;;;;;4995489;28;20461;-90
2021/12/15 12:19:34;;;;;;;9.50;6.93;;;;;;;;;;4995078;28;20549;-92
2021/12/15 12:22:01;;;;;;;9.60;7.30;;;;;;;;;;4997590;28;20446;-90
2021/12/15 12:24:33;;;;;;;10.33;6.43;;;5.30;99.90;;;;;;5000072;28;20489;-91
2021/12/15 12:27:01;;;;;;;10.07;8.03;;;;;;;;;;4996385;28;20516;-89
2021/12/15 12:29:28;;;;;;;11.80;7.90;;;5.30;99.90;;;;;;4991522;28;20461;-91
2021/12/15 12:31:55;;;;;;;14.60;7.17;;;;;;;;;;4994489;28;20460;-90
2021/12/15 12:34:22;;;;;;;10.60;7.90;;;5.50;99.90;;;;;;4996808;28;20469;-89
2021/12/15 12:36:51;;;;;;;11.50;7.90;;;;;;;;;;4992519;28;20899;-91
2021/12/15 12:39:21;;;;;;;11.37;8.37;;;;;;;;;;4996001;28;20456;-87
2021/12/15 12:41:51;;;;;;;11.50;7.77;;;5.40;99.90;;;;;;4997564;28;20557;-91
2021/12/15 12:44:23;;;;;;;12.20;7.83;;;5.30;99.90;;;;;;5002458;28;20513;-90
2021/12/15 12:47:01;;;;;;;10.67;7.80;;;5.20;99.90;;;;;;4997697;28;20446;-89
2021/12/15 13:01:18;;;;;;;12.97;8.80;;;5.20;99.90;;;;;;4995711;28;20789;-91
2021/12/15 13:03:50;;;;;;;13.67;9.10;;;5.20;99.90;;;;;;4997500;28;20852;-92
2021/12/15 13:06:19;;;;;;;9.77;8.07;;;5.30;99.90;;;;;;4995803;28;20493;-89
2021/12/15 13:08:47;;;;;;;13.03;9.10;;;5.30;99.90;;;;;;4996035;28;20484;-87
2021/12/15 13:11:35;;;;;;;11.27;8.73;;;5.30;99.90;;;;;;4997507;28;20608;-91
2021/12/15 13:14:08;;;;;;;12.17;8.70;;;5.30;99.90;;;;;;4997626;28;20532;-92
2021/12/15 13:16:44;;;;;;;9.70;7.57;;;5.10;99.90;;;;;;4992570;28;20535;-90
2021/12/15 13:19:24;;;;;;;10.23;7.40;;;5.10;99.90;;;;;;4992647;28;20457;-89
2021/12/15 13:22:02;;;;;;;9.13;7.80;;;5.10;99.90;;;;;;4990548;28;20460;-90
2021/12/15 13:30:39;;;;;;;11.27;7.80;;;5.10;99.90;;;;;;4997213;28;20542;-91
2021/12/15 13:33:13;;;;;;;10.50;8.27;;;5.00;99.90;;;;;;4997782;28;21004;-89
2021/12/15 13:35:49;;;;;;;10.67;8.03;;;5.40;99.90;;;;;;4997756;28;20449;-88
2021/12/15 13:38:21;;;;;;;9.90;7.80;;;5.00;99.90;;;;;;4997089;28;20456;-90
2021/12/15 13:41:24;;;;;;;11.50;8.93;;;4.90;99.90;;;;;;4998622;28;20458;-90
2021/12/15 13:43:58;;;;;;;12.17;8.20;;;5.20;99.90;;;;;;4995292;28;20461;-90
2021/12/15 13:46:41;;;;;;;10.70;7.77;;;5.50;99.90;;;;;;4999212;28;20493;-90
2021/12/15 13:49:26;;;;;;;10.50;7.57;;;5.20;99.90;;;;;;4997743;28;20446;-88
2021/12/15 13:52:20;;;;;;;9.63;7.57;;;5.20;99.90;;;;;;4997281;28;20451;-90
2021/12/15 13:55:14;;;;;;;9.47;8.27;;;5.50;99.90;;;;;;4999613;28;20461;-86
2021/12/15 13:57:57;;;;;;;10.33;7.90;;;4.90;99.90;;;;;;5003818;28;20489;-89
2021/12/15 14:00:28;;;;;;;10.00;7.67;;;5.20;99.90;;;;;;4994667;28;20466;-89
2021/12/15 14:03:05;;;;;;;12.33;7.77;;;5.20;99.90;;;;;;4979106;28;20451;-90
2021/12/15 14:05:34;;;;;;;10.13;7.73;;;5.30;99.90;;;;;;4997933;28;20507;-89
2021/12/15 14:08:04;;;;;;;10.07;8.33;;;5.30;99.90;;;;;;4993257;28;20456;-88
2021/12/15 14:10:55;;;;;;;9.43;6.60;;;5.10;99.90;;;;;;4996100;28;20450;-89
2021/12/15 14:13:36;;;;;;;8.70;7.33;;;4.90;99.90;;;;;;4993703;28;20541;-88
2021/12/15 14:16:03;;;;;;;12.67;7.20;;;;;;;;;;4996252;28;20442;-89
2021/12/15 14:18:33;;;;;;;11.87;8.27;;;5.10;99.90;;;;;;4996291;28;20446;-92
2021/12/15 14:21:02;;;;;;;8.20;6.90;;;5.10;99.90;;;;;;4990099;28;20446;-90
2021/12/15 14:23:32;;;;;;;10.07;7.53;;;5.00;99.90;;;;;;4993244;28;20812;-89
2021/12/15 14:26:01;;;;;;;12.80;9.67;;;5.00;99.90;;;;;;4996262;28;21039;-90
2021/12/15 14:28:31;;;;;;;62.60;41.00;;;5.10;99.90;;;;;;4994341;28;20458;-88
2021/12/15 14:31:02;;;;;;;18.53;14.43;;;5.20;99.90;;;;;;5003418;28;20452;-91
2021/12/15 14:33:33;;;;;;;18.33;12.43;;;5.20;99.90;;;;;;5015330;28;20457;-88
2021/12/15 14:36:07;;;;;;;17.83;12.90;;;5.20;99.90;;;;;;5010770;28;20457;-88
2021/12/15 14:38:37;;;;;;;13.50;9.93;;;5.20;99.90;;;;;;5014986;28;20523;-87
2021/12/15 14:41:24;;;;;;;14.33;10.50;;;5.20;99.90;;;;;;5014588;28;20453;-89
2021/12/15 14:43:53;;;;;;;24.53;18.57;;;5.10;99.90;;;;;;5015822;28;20463;-90
2021/12/15 14:46:24;;;;;;;22.53;18.30;;;5.10;99.90;;;;;;5018733;28;20496;-87